sensor_id;sensor_type;location;lat;lon;timestamp;noise_LAeq;noise_LA_min;noise_LA_max;noise_LA01;noise_LA95
49732;Laerm;43666;51.442;6.778;2022-07-18T00:02:16;40.17;38.21;41.68;;
49732;Laerm;43666;51.442;6.778;2022-07-18T00:04:44;40.17;37.88;41.75;;
49732;Laerm;43666;51.442;6.778;2022-07-18T00:07:10;40.15;38.05;42.03;;
49732;Laerm;43666;51.442;6.778;2022-07-18T00:09:37;40.13;37.70;41.75;;
49732;Laerm;43666;51.442;6.778;2022-07-18T00:12:03;40.12;38.05;41.75;;
49732;Laerm;43666;51.442;6.778;2022-07-18T00:14:29;40.09;38.05;41.82;;
49732;Laerm;43666;51.442;6.778;2022-07-18T00:16:56;40.06;38.05;41.68;;
49732;Laerm;43666;51.442;6.778;2022-07-18T00:19:23;40.08;37.88;41.75;;
49732;Laerm;43666;51.442;6.778;2022-07-18T00:21:49;40.02;38.05;41.61;;
49732;Laerm;43666;51.442;6.778;2022-07-18T00:24:14;40.01;37.88;41.61;;
49732;Laerm;43666;51.442;6.778;2022-07-18T00:26:40;40.01;37.70;41.75;;
49732;Laerm;43666;51.442;6.778;2022-07-18T00:29:06;40.03;38.05;41.89;;
49732;Laerm;43666;51.442;6.778;2022-07-18T00:31:32;40.01;37.88;41.68;;
49732;Laerm;43666;51.442;6.778;2022-07-18T00:33:58;40.01;37.32;41.53;;
49732;Laerm;43666;51.442;6.778;2022-07-18T00:36:25;39.98;37.88;41.82;;
49732;Laerm;43666;51.442;6.778;2022-07-18T00:38:50;39.99;37.52;41.75;;
49732;Laerm;43666;51.442;6.778;2022-07-18T00:41:16;39.99;38.05;41.82;;
49732;Laerm;43666;51.442;6.778;2022-07-18T00:43:42;39.99;37.70;41.82;;
49732;Laerm;43666;51.442;6.778;2022-07-18T00:46:08;40.00;37.88;41.75;;
49732;Laerm;43666;51.442;6.778;2022-07-18T00:48:33;39.97;37.70;41.46;;
49732;Laerm;43666;51.442;6.778;2022-07-18T00:51:00;39.98;37.70;41.61;;
49732;Laerm;43666;51.442;6.778;2022-07-18T00:53:26;39.99;37.70;41.75;;
49732;Laerm;43666;51.442;6.778;2022-07-18T00:55:53;39.95;37.32;41.61;;
49732;Laerm;43666;51.442;6.778;2022-07-18T00:58:19;39.90;37.70;41.46;;
49732;Laerm;43666;51.442;6.778;2022-07-18T01:00:46;39.89;37.32;41.68;;
49732;Laerm;43666;51.442;6.778;2022-07-18T01:03:30;39.91;37.52;41.96;;
49732;Laerm;43666;51.442;6.778;2022-07-18T01:05:56;39.89;37.52;41.75;;
49732;Laerm;43666;51.442;6.778;2022-07-18T01:08:22;39.88;37.12;41.61;;
49732;Laerm;43666;51.442;6.778;2022-07-18T01:10:49;39.81;37.52;41.68;;
49732;Laerm;43666;51.442;6.778;2022-07-18T01:13:17;39.76;37.32;41.75;;
49732;Laerm;43666;51.442;6.778;2022-07-18T01:15:45;39.79;37.12;41.61;;
49732;Laerm;43666;51.442;6.778;2022-07-18T01:18:12;39.72;36.69;41.53;;
49732;Laerm;43666;51.442;6.778;2022-07-18T01:20:38;39.68;37.32;41.82;;
49732;Laerm;43666;51.442;6.778;2022-07-18T01:23:04;39.70;37.52;41.38;;
49732;Laerm;43666;51.442;6.778;2022-07-18T01:25:30;39.68;36.91;41.75;;
49732;Laerm;43666;51.442;6.778;2022-07-18T01:27:56;39.68;37.32;41.46;;
49732;Laerm;43666;51.442;6.778;2022-07-18T01:30:23;39.72;37.52;41.61;;
49732;Laerm;43666;51.442;6.778;2022-07-18T01:32:56;39.73;37.32;41.53;;
49732;Laerm;43666;51.442;6.778;2022-07-18T01:35:23;39.74;37.32;41.61;;
49732;Laerm;43666;51.442;6.778;2022-07-18T01:37:52;39.78;37.52;42.03;;
49732;Laerm;43666;51.442;6.778;2022-07-18T01:40:18;39.73;37.32;41.75;;
49732;Laerm;43666;51.442;6.778;2022-07-18T01:42:43;39.64;36.69;41.53;;
49732;Laerm;43666;51.442;6.778;2022-07-18T01:45:09;39.68;37.52;41.53;;
49732;Laerm;43666;51.442;6.778;2022-07-18T01:47:35;39.61;37.12;41.38;;
49732;Laerm;43666;51.442;6.778;2022-07-18T01:50:00;39.61;37.12;41.46;;
49732;Laerm;43666;51.442;6.778;2022-07-18T01:52:27;39.64;37.12;41.53;;
49732;Laerm;43666;51.442;6.778;2022-07-18T01:54:53;39.63;36.91;41.75;;
49732;Laerm;43666;51.442;6.778;2022-07-18T01:57:18;39.75;37.32;41.82;;
49732;Laerm;43666;51.442;6.778;2022-07-18T01:59:44;39.70;37.32;41.46;;
49732;Laerm;43666;51.442;6.778;2022-07-18T02:02:10;39.75;36.69;41.61;;
49732;Laerm;43666;51.442;6.778;2022-07-18T02:04:36;39.97;37.52;41.96;;
49732;Laerm;43666;51.442;6.778;2022-07-18T02:07:21;39.83;37.32;41.68;;
49732;Laerm;43666;51.442;6.778;2022-07-18T02:09:47;40.04;37.32;41.96;;
49732;Laerm;43666;51.442;6.778;2022-07-18T02:12:13;40.32;37.88;42.09;;
49732;Laerm;43666;51.442;6.778;2022-07-18T02:14:38;40.13;36.91;42.09;;
49732;Laerm;43666;51.442;6.778;2022-07-18T02:17:04;40.16;37.70;42.03;;
49732;Laerm;43666;51.442;6.778;2022-07-18T02:19:30;40.11;37.32;42.09;;
49732;Laerm;43666;51.442;6.778;2022-07-18T02:21:56;40.15;37.12;41.96;;
49732;Laerm;43666;51.442;6.778;2022-07-18T02:24:22;40.24;36.91;42.09;;
49732;Laerm;43666;51.442;6.778;2022-07-18T02:26:48;40.14;36.91;42.35;;
49732;Laerm;43666;51.442;6.778;2022-07-18T02:29:13;40.12;37.52;42.03;;
49732;Laerm;43666;51.442;6.778;2022-07-18T02:31:39;40.22;37.70;42.09;;
49732;Laerm;43666;51.442;6.778;2022-07-18T02:34:05;40.03;36.20;41.89;;
49732;Laerm;43666;51.442;6.778;2022-07-18T02:36:36;39.99;36.69;42.09;;
49732;Laerm;43666;51.442;6.778;2022-07-18T02:39:03;40.17;37.70;42.16;;
49732;Laerm;43666;51.442;6.778;2022-07-18T02:41:28;40.18;37.12;42.03;;
49732;Laerm;43666;51.442;6.778;2022-07-18T02:43:54;40.22;37.32;42.16;;
49732;Laerm;43666;51.442;6.778;2022-07-18T02:46:20;40.38;37.88;42.35;;
49732;Laerm;43666;51.442;6.778;2022-07-18T02:48:45;40.44;37.70;42.47;;
49732;Laerm;43666;51.442;6.778;2022-07-18T02:51:11;40.41;37.52;42.41;;
49732;Laerm;43666;51.442;6.778;2022-07-18T02:53:37;40.24;36.91;42.16;;
49732;Laerm;43666;51.442;6.778;2022-07-18T02:56:03;40.19;37.12;42.22;;
49732;Laerm;43666;51.442;6.778;2022-07-18T02:58:28;40.24;37.32;42.35;;
49732;Laerm;43666;51.442;6.778;2022-07-18T03:00:54;40.11;36.69;42.22;;
49732;Laerm;43666;51.442;6.778;2022-07-18T03:03:20;40.08;36.91;41.96;;
49732;Laerm;43666;51.442;6.778;2022-07-18T03:05:46;40.33;37.32;42.35;;
49732;Laerm;43666;51.442;6.778;2022-07-18T03:08:12;40.31;37.32;42.03;;
49732;Laerm;43666;51.442;6.778;2022-07-18T03:10:38;40.30;37.12;42.35;;
49732;Laerm;43666;51.442;6.778;2022-07-18T03:13:04;40.05;36.91;42.16;;
49732;Laerm;43666;51.442;6.778;2022-07-18T03:15:30;40.18;37.70;42.22;;
49732;Laerm;43666;51.442;6.778;2022-07-18T03:17:57;40.34;37.12;42.36;;
49732;Laerm;43666;51.442;6.778;2022-07-18T03:20:22;40.36;37.12;42.47;;
49732;Laerm;43666;51.442;6.778;2022-07-18T03:22:48;40.08;36.45;42.35;;
49732;Laerm;43666;51.442;6.778;2022-07-18T03:25:13;40.11;36.91;42.09;;
49732;Laerm;43666;51.442;6.778;2022-07-18T03:27:39;40.19;37.32;42.29;;
49732;Laerm;43666;51.442;6.778;2022-07-18T03:30:06;39.96;36.34;42.53;;
49732;Laerm;43666;51.442;6.778;2022-07-18T03:32:32;39.84;36.77;41.89;;
49732;Laerm;43666;51.442;6.778;2022-07-18T03:35:00;40.01;37.12;42.53;;
49732;Laerm;43666;51.442;6.778;2022-07-18T03:37:26;40.05;36.91;42.03;;
49732;Laerm;43666;51.442;6.778;2022-07-18T03:39:52;40.14;36.91;42.22;;
49732;Laerm;43666;51.442;6.778;2022-07-18T03:42:18;40.10;36.91;42.35;;
49732;Laerm;43666;51.442;6.778;2022-07-18T03:44:45;40.07;36.91;42.41;;
49732;Laerm;43666;51.442;6.778;2022-07-18T03:47:11;40.22;37.12;42.22;;
49732;Laerm;43666;51.442;6.778;2022-07-18T03:49:37;40.08;37.12;42.35;;
49732;Laerm;43666;51.442;6.778;2022-07-18T03:52:03;40.02;37.12;42.35;;
49732;Laerm;43666;51.442;6.778;2022-07-18T03:54:29;39.94;36.20;42.16;;
49732;Laerm;43666;51.442;6.778;2022-07-18T03:56:55;39.94;36.69;41.96;;
49732;Laerm;43666;51.442;6.778;2022-07-18T03:59:21;39.96;35.94;42.09;;
49732;Laerm;43666;51.442;6.778;2022-07-18T04:01:47;40.02;37.12;42.29;;
49732;Laerm;43666;51.442;6.778;2022-07-18T04:04:13;40.06;37.32;42.09;;
49732;Laerm;43666;51.442;6.778;2022-07-18T04:06:39;39.85;36.69;42.03;;
49732;Laerm;43666;51.442;6.778;2022-07-18T04:09:05;39.87;36.69;42.09;;
49732;Laerm;43666;51.442;6.778;2022-07-18T04:11:31;39.92;36.91;42.29;;
49732;Laerm;43666;51.442;6.778;2022-07-18T04:13:57;39.99;36.69;41.96;;
49732;Laerm;43666;51.442;6.778;2022-07-18T04:16:23;39.97;37.12;42.03;;
49732;Laerm;43666;51.442;6.778;2022-07-18T04:18:49;39.74;36.45;42.16;;
49732;Laerm;43666;51.442;6.778;2022-07-18T04:21:15;39.85;35.66;42.16;;
49732;Laerm;43666;51.442;6.778;2022-07-18T04:23:41;39.97;36.20;42.41;;
49732;Laerm;43666;51.442;6.778;2022-07-18T04:26:07;39.92;36.69;41.96;;
49732;Laerm;43666;51.442;6.778;2022-07-18T04:28:32;39.83;37.12;42.35;;
49732;Laerm;43666;51.442;6.778;2022-07-18T04:30:58;39.84;36.69;42.09;;
49732;Laerm;43666;51.442;6.778;2022-07-18T04:33:24;39.85;37.12;41.82;;
49732;Laerm;43666;51.442;6.778;2022-07-18T04:35:50;39.78;36.69;41.82;;
49732;Laerm;43666;51.442;6.778;2022-07-18T04:38:16;39.79;36.45;42.09;;
49732;Laerm;43666;51.442;6.778;2022-07-18T04:40:42;39.84;36.69;41.82;;
49732;Laerm;43666;51.442;6.778;2022-07-18T04:43:08;40.08;36.91;42.35;;
49732;Laerm;43666;51.442;6.778;2022-07-18T04:45:34;39.64;36.45;42.09;;
49732;Laerm;43666;51.442;6.778;2022-07-18T04:48:01;39.61;36.20;42.03;;
49732;Laerm;43666;51.442;6.778;2022-07-18T04:50:27;39.64;36.45;41.75;;
49732;Laerm;43666;51.442;6.778;2022-07-18T04:52:56;39.61;35.94;41.89;;
49732;Laerm;43666;51.442;6.778;2022-07-18T04:55:22;39.56;36.20;42.29;;
49732;Laerm;43666;51.442;6.778;2022-07-18T04:57:49;39.42;35.94;41.68;;
49732;Laerm;43666;51.442;6.778;2022-07-18T05:00:16;39.29;36.45;41.89;;
49732;Laerm;43666;51.442;6.778;2022-07-18T05:02:42;39.40;35.94;41.61;;
49732;Laerm;43666;51.442;6.778;2022-07-18T05:05:09;39.51;36.45;41.53;;
49732;Laerm;43666;51.442;6.778;2022-07-18T05:07:36;39.41;36.45;41.68;;
49732;Laerm;43666;51.442;6.778;2022-07-18T05:10:02;39.41;36.45;41.61;;
49732;Laerm;43666;51.442;6.778;2022-07-18T05:12:34;39.32;36.45;41.61;;
49732;Laerm;43666;51.442;6.778;2022-07-18T05:14:59;39.28;36.20;41.38;;
49732;Laerm;43666;51.442;6.778;2022-07-18T05:17:25;39.37;35.94;41.68;;
49732;Laerm;43666;51.442;6.778;2022-07-18T05:19:51;39.21;36.20;41.46;;
49732;Laerm;43666;51.442;6.778;2022-07-18T05:22:16;39.17;36.20;41.22;;
49732;Laerm;43666;51.442;6.778;2022-07-18T05:24:43;39.05;36.20;41.22;;
49732;Laerm;43666;51.442;6.778;2022-07-18T05:27:09;39.08;36.20;41.30;;
49732;Laerm;43666;51.442;6.778;2022-07-18T05:29:34;39.03;35.94;41.14;;
49732;Laerm;43666;51.442;6.778;2022-07-18T05:32:00;39.12;36.45;41.22;;
49732;Laerm;43666;51.442;6.778;2022-07-18T05:34:27;39.12;36.20;41.22;;
49732;Laerm;43666;51.442;6.778;2022-07-18T05:36:53;39.13;36.45;41.14;;
49732;Laerm;43666;51.442;6.778;2022-07-18T05:39:18;39.17;35.94;41.22;;
49732;Laerm;43666;51.442;6.778;2022-07-18T05:41:44;39.22;36.45;41.30;;
49732;Laerm;43666;51.442;6.778;2022-07-18T05:44:09;39.31;36.69;41.38;;
49732;Laerm;43666;51.442;6.778;2022-07-18T05:46:36;39.38;36.45;41.22;;
49732;Laerm;43666;51.442;6.778;2022-07-18T05:49:01;39.47;37.12;41.22;;
49732;Laerm;43666;51.442;6.778;2022-07-18T05:51:27;39.72;37.52;41.75;;
49732;Laerm;43666;51.442;6.778;2022-07-18T05:53:53;39.82;37.12;41.53;;
49732;Laerm;43666;51.442;6.778;2022-07-18T05:56:18;39.96;37.70;41.82;;
49732;Laerm;43666;51.442;6.778;2022-07-18T05:58:44;40.13;38.05;41.82;;
49732;Laerm;43666;51.442;6.778;2022-07-18T06:01:10;40.16;38.18;41.89;;
49732;Laerm;43666;51.442;6.778;2022-07-18T06:03:36;40.22;38.05;41.89;;
49732;Laerm;43666;51.442;6.778;2022-07-18T06:06:02;40.26;38.05;41.89;;
49732;Laerm;43666;51.442;6.778;2022-07-18T06:08:27;40.27;38.37;42.09;;
49732;Laerm;43666;51.442;6.778;2022-07-18T06:10:54;40.26;37.70;42.22;;
49732;Laerm;43666;51.442;6.778;2022-07-18T06:13:19;40.25;38.05;42.09;;
49732;Laerm;43666;51.442;6.778;2022-07-18T06:15:46;40.27;37.88;41.89;;
49732;Laerm;43666;51.442;6.778;2022-07-18T06:18:13;40.27;37.88;42.16;;
49732;Laerm;43666;51.442;6.778;2022-07-18T06:20:38;40.28;38.18;42.09;;
49732;Laerm;43666;51.442;6.778;2022-07-18T06:23:04;40.30;37.70;42.09;;
49732;Laerm;43666;51.442;6.778;2022-07-18T06:25:30;40.27;38.21;42.03;;
49732;Laerm;43666;51.442;6.778;2022-07-18T06:27:56;40.25;37.70;41.96;;
49732;Laerm;43666;51.442;6.778;2022-07-18T06:30:22;40.22;37.52;42.09;;
49732;Laerm;43666;51.442;6.778;2022-07-18T06:32:48;40.21;37.88;41.89;;
49732;Laerm;43666;51.442;6.778;2022-07-18T06:35:14;40.17;37.52;41.94;;
49732;Laerm;43666;51.442;6.778;2022-07-18T06:37:39;40.13;37.70;42.03;;
49732;Laerm;43666;51.442;6.778;2022-07-18T06:40:05;40.22;37.70;41.96;;
49732;Laerm;43666;51.442;6.778;2022-07-18T06:42:31;40.20;37.88;42.03;;
49732;Laerm;43666;51.442;6.778;2022-07-18T06:44:58;40.20;37.88;42.09;;
49732;Laerm;43666;51.442;6.778;2022-07-18T06:47:25;40.08;37.52;41.89;;
49732;Laerm;43666;51.442;6.778;2022-07-18T06:49:51;40.03;37.52;42.09;;
49732;Laerm;43666;51.442;6.778;2022-07-18T06:52:17;39.95;37.32;41.75;;
49732;Laerm;43666;51.442;6.778;2022-07-18T06:54:43;39.97;37.12;41.96;;
49732;Laerm;43666;51.442;6.778;2022-07-18T06:57:08;39.95;37.32;41.89;;
49732;Laerm;43666;51.442;6.778;2022-07-18T06:59:35;39.95;37.32;41.89;;
49732;Laerm;43666;51.442;6.778;2022-07-18T07:02:01;39.90;37.32;42.09;;
49732;Laerm;43666;51.442;6.778;2022-07-18T07:04:27;39.82;37.12;41.75;;
49732;Laerm;43666;51.442;6.778;2022-07-18T07:06:52;39.82;37.12;42.03;;
49732;Laerm;43666;51.442;6.778;2022-07-18T07:09:18;39.70;36.91;41.82;;
49732;Laerm;43666;51.442;6.778;2022-07-18T07:11:44;39.66;36.91;41.61;;
49732;Laerm;43666;51.442;6.778;2022-07-18T07:14:09;39.60;36.20;41.61;;
49732;Laerm;43666;51.442;6.778;2022-07-18T07:16:36;39.66;36.20;41.82;;
49732;Laerm;43666;51.442;6.778;2022-07-18T07:19:02;39.63;35.04;41.82;;
49732;Laerm;43666;51.442;6.778;2022-07-18T07:21:28;39.52;36.45;41.61;;
49732;Laerm;43666;51.442;6.778;2022-07-18T07:23:54;39.73;36.69;41.82;;
49732;Laerm;43666;51.442;6.778;2022-07-18T07:26:20;39.63;36.45;41.68;;
49732;Laerm;43666;51.442;6.778;2022-07-18T07:28:46;39.60;36.69;41.75;;
49732;Laerm;43666;51.442;6.778;2022-07-18T07:31:13;39.60;36.20;41.89;;
49732;Laerm;43666;51.442;6.778;2022-07-18T07:33:38;39.60;36.20;41.82;;
49732;Laerm;43666;51.442;6.778;2022-07-18T07:36:04;39.51;36.10;41.82;;
49732;Laerm;43666;51.442;6.778;2022-07-18T07:38:31;39.51;36.10;41.68;;
49732;Laerm;43666;51.442;6.778;2022-07-18T07:40:57;39.52;36.69;41.68;;
49732;Laerm;43666;51.442;6.778;2022-07-18T07:43:23;39.56;36.20;41.75;;
49732;Laerm;43666;51.442;6.778;2022-07-18T07:45:53;39.41;35.94;41.53;;
49732;Laerm;43666;51.442;6.778;2022-07-18T07:48:23;39.37;36.20;41.53;;
49732;Laerm;43666;51.442;6.778;2022-07-18T07:50:49;39.41;36.45;41.46;;
49732;Laerm;43666;51.442;6.778;2022-07-18T07:53:16;39.41;35.36;41.68;;
49732;Laerm;43666;51.442;6.778;2022-07-18T07:55:42;39.26;34.69;41.68;;
49732;Laerm;43666;51.442;6.778;2022-07-18T07:58:08;39.28;34.69;41.53;;
49732;Laerm;43666;51.442;6.778;2022-07-18T08:00:34;39.29;36.20;41.61;;
49732;Laerm;43666;51.442;6.778;2022-07-18T08:03:03;39.22;36.20;41.53;;
49732;Laerm;43666;51.442;6.778;2022-07-18T08:05:30;39.15;35.94;41.53;;
49732;Laerm;43666;51.442;6.778;2022-07-18T08:07:57;39.07;35.01;41.46;;
49732;Laerm;43666;51.442;6.778;2022-07-18T08:10:23;38.99;34.31;41.46;;
49732;Laerm;43666;51.442;6.778;2022-07-18T08:12:49;38.97;35.04;41.22;;
49732;Laerm;43666;51.442;6.778;2022-07-18T08:15:15;38.99;35.04;41.38;;
49732;Laerm;43666;51.442;6.778;2022-07-18T08:17:41;39.11;33.44;41.38;;
49732;Laerm;43666;51.442;6.778;2022-07-18T08:20:07;39.01;35.04;41.38;;
49732;Laerm;43666;51.442;6.778;2022-07-18T08:22:33;38.94;35.66;41.38;;
49732;Laerm;43666;51.442;6.778;2022-07-18T08:24:59;38.99;35.36;41.30;;
49732;Laerm;43666;51.442;6.778;2022-07-18T08:27:24;39.07;35.66;41.61;;
49732;Laerm;43666;51.442;6.778;2022-07-18T08:29:50;39.09;35.04;41.53;;
49732;Laerm;43666;51.442;6.778;2022-07-18T08:32:15;38.96;35.04;41.30;;
49732;Laerm;43666;51.442;6.778;2022-07-18T08:34:41;39.15;35.36;41.46;;
49732;Laerm;43666;51.442;6.778;2022-07-18T08:37:07;39.12;35.94;41.82;;
49732;Laerm;43666;51.442;6.778;2022-07-18T08:39:33;38.89;34.69;41.30;;
49732;Laerm;43666;51.442;6.778;2022-07-18T08:41:59;38.77;33.90;41.06;;
49732;Laerm;43666;51.442;6.778;2022-07-18T08:44:30;38.81;35.36;41.30;;
49732;Laerm;43666;51.442;6.778;2022-07-18T08:46:57;38.83;35.04;41.30;;
49732;Laerm;43666;51.442;6.778;2022-07-18T08:49:25;38.87;35.01;41.30;;
49732;Laerm;43666;51.442;6.778;2022-07-18T08:51:51;38.81;34.31;41.22;;
49732;Laerm;43666;51.442;6.778;2022-07-18T08:54:17;38.73;35.36;41.75;;
49732;Laerm;43666;51.442;6.778;2022-07-18T08:56:43;38.84;35.04;41.68;;
49732;Laerm;43666;51.442;6.778;2022-07-18T08:59:09;39.03;34.31;41.53;;
49732;Laerm;43666;51.442;6.778;2022-07-18T09:01:35;38.72;34.31;41.14;;
49732;Laerm;43666;51.442;6.778;2022-07-18T09:04:01;38.67;34.31;41.06;;
49732;Laerm;43666;51.442;6.778;2022-07-18T09:06:43;38.69;33.44;41.06;;
49732;Laerm;43666;51.442;6.778;2022-07-18T09:09:10;38.63;35.04;41.14;;
49732;Laerm;43666;51.442;6.778;2022-07-18T09:11:36;38.54;34.31;41.14;;
49732;Laerm;43666;51.442;6.778;2022-07-18T09:14:03;38.54;34.31;41.06;;
49732;Laerm;43666;51.442;6.778;2022-07-18T09:16:29;38.45;33.90;41.38;;
49732;Laerm;43666;51.442;6.778;2022-07-18T09:18:55;38.53;34.69;41.11;;
49732;Laerm;43666;51.442;6.778;2022-07-18T09:21:22;38.59;34.34;41.22;;
49732;Laerm;43666;51.442;6.778;2022-07-18T09:23:49;38.66;34.69;41.46;;
49732;Laerm;43666;51.442;6.778;2022-07-18T09:26:33;38.62;34.69;41.22;;
49732;Laerm;43666;51.442;6.778;2022-07-18T09:28:59;38.45;34.31;41.06;;
49732;Laerm;43666;51.442;6.778;2022-07-18T09:31:26;38.50;34.31;41.06;;
49732;Laerm;43666;51.442;6.778;2022-07-18T09:33:58;38.34;34.31;40.89;;
49732;Laerm;43666;51.442;6.778;2022-07-18T09:36:25;38.35;34.31;41.06;;
49732;Laerm;43666;51.442;6.778;2022-07-18T09:38:51;38.35;32.93;41.14;;
49732;Laerm;43666;51.442;6.778;2022-07-18T09:41:21;38.40;33.90;41.06;;
49732;Laerm;43666;51.442;6.778;2022-07-18T09:43:47;38.37;33.90;40.98;;
49732;Laerm;43666;51.442;6.778;2022-07-18T09:46:13;38.39;34.69;41.06;;
49732;Laerm;43666;51.442;6.778;2022-07-18T09:48:38;38.32;33.44;41.14;;
49732;Laerm;43666;51.442;6.778;2022-07-18T09:51:05;38.24;32.93;40.80;;
49732;Laerm;43666;51.442;6.778;2022-07-18T09:56:07;38.47;33.90;44.19;;
49732;Laerm;43666;51.442;6.778;2022-07-18T09:58:36;37.83;32.35;40.71;;
49732;Laerm;43666;51.442;6.778;2022-07-18T10:01:03;37.83;32.35;40.71;;
49732;Laerm;43666;51.442;6.778;2022-07-18T10:03:29;37.84;31.68;43.04;;
49732;Laerm;43666;51.442;6.778;2022-07-18T10:05:56;37.87;33.44;40.53;;
49732;Laerm;43666;51.442;6.778;2022-07-18T10:08:23;37.89;32.35;40.98;;
49732;Laerm;43666;51.442;6.778;2022-07-18T10:10:49;37.92;32.93;40.71;;
49732;Laerm;43666;51.442;6.778;2022-07-18T10:13:17;37.81;30.89;42.29;;
49732;Laerm;43666;51.442;6.778;2022-07-18T10:15:44;37.72;31.68;40.45;;
49732;Laerm;43666;51.442;6.778;2022-07-18T10:18:11;37.71;32.93;40.43;;
49732;Laerm;43666;51.442;6.778;2022-07-18T10:20:38;37.95;32.35;40.71;;
49732;Laerm;43666;51.442;6.778;2022-07-18T10:25:36;37.96;33.44;40.89;;
49732;Laerm;43666;51.442;6.778;2022-07-18T10:30:35;37.75;32.35;41.38;;
49732;Laerm;43666;51.442;6.778;2022-07-18T10:33:02;37.62;31.68;40.89;;
49732;Laerm;43666;51.442;6.778;2022-07-18T10:38:20;37.62;30.89;40.43;;
49732;Laerm;43666;51.442;6.778;2022-07-18T10:41:05;37.67;32.93;40.89;;
49732;Laerm;43666;51.442;6.778;2022-07-18T10:43:32;37.62;32.00;40.43;;
49732;Laerm;43666;51.442;6.778;2022-07-18T10:45:58;37.66;31.68;40.53;;
49732;Laerm;43666;51.442;6.778;2022-07-18T10:50:59;37.67;30.89;40.71;;
49732;Laerm;43666;51.442;6.778;2022-07-18T10:56:10;37.81;32.35;40.80;;
49732;Laerm;43666;51.442;6.778;2022-07-18T10:58:38;37.73;31.68;40.53;;
49732;Laerm;43666;51.442;6.778;2022-07-18T11:01:04;37.81;29.92;40.79;;
49732;Laerm;43666;51.442;6.778;2022-07-18T11:03:32;37.79;31.68;40.89;;
49732;Laerm;43666;51.442;6.778;2022-07-18T11:05:57;37.76;32.35;41.06;;
49732;Laerm;43666;51.442;6.778;2022-07-18T11:08:24;37.78;32.93;40.89;;
49732;Laerm;43666;51.442;6.778;2022-07-18T11:18:20;37.83;33.44;41.53;;
49732;Laerm;43666;51.442;6.778;2022-07-18T11:20:47;37.78;31.68;42.59;;
49732;Laerm;43666;51.442;6.778;2022-07-18T11:25:43;37.78;31.68;40.89;;
49732;Laerm;43666;51.442;6.778;2022-07-18T11:28:09;37.83;32.93;40.80;;
49732;Laerm;43666;51.442;6.778;2022-07-18T11:30:36;37.84;32.93;40.80;;
49732;Laerm;43666;51.442;6.778;2022-07-18T11:33:01;37.91;32.35;40.98;;
49732;Laerm;43666;51.442;6.778;2022-07-18T11:35:27;37.77;31.68;40.62;;
49732;Laerm;43666;51.442;6.778;2022-07-18T11:37:54;37.75;31.68;40.62;;
49732;Laerm;43666;51.442;6.778;2022-07-18T11:40:21;37.78;32.35;40.33;;
49732;Laerm;43666;51.442;6.778;2022-07-18T11:42:47;37.65;32.35;40.53;;
49732;Laerm;43666;51.442;6.778;2022-07-18T11:45:14;37.76;32.93;40.89;;
49732;Laerm;43666;51.442;6.778;2022-07-18T11:47:47;37.89;30.89;44.07;;
49732;Laerm;43666;51.442;6.778;2022-07-18T11:50:13;37.74;31.68;41.14;;
49732;Laerm;43666;51.442;6.778;2022-07-18T11:52:39;37.62;30.89;40.80;;
49732;Laerm;43666;51.442;6.778;2022-07-18T11:55:06;37.79;32.93;40.89;;
49732;Laerm;43666;51.442;6.778;2022-07-18T11:57:33;37.83;33.44;40.71;;
49732;Laerm;43666;51.442;6.778;2022-07-18T11:59:59;37.80;33.44;40.53;;
49732;Laerm;43666;51.442;6.778;2022-07-18T12:05:10;37.69;30.89;41.30;;
49732;Laerm;43666;51.442;6.778;2022-07-18T12:07:35;37.69;32.35;40.43;;
49732;Laerm;43666;51.442;6.778;2022-07-18T12:10:16;37.68;30.89;40.62;;
49732;Laerm;43666;51.442;6.778;2022-07-18T12:12:43;37.56;32.35;40.33;;
49732;Laerm;43666;51.442;6.778;2022-07-18T12:15:09;37.53;30.89;40.13;;
49732;Laerm;43666;51.442;6.778;2022-07-18T12:17:42;37.63;29.92;40.62;;
49732;Laerm;43666;51.442;6.778;2022-07-18T12:23:02;37.54;28.67;40.53;;
49732;Laerm;43666;51.442;6.778;2022-07-18T12:25:34;37.47;32.35;40.53;;
49732;Laerm;43666;51.442;6.778;2022-07-18T12:28:13;37.44;31.68;40.80;;
49732;Laerm;43666;51.442;6.778;2022-07-18T12:30:39;37.57;31.68;40.43;;
49732;Laerm;43666;51.442;6.778;2022-07-18T12:33:08;37.50;31.68;40.43;;
49732;Laerm;43666;51.442;6.778;2022-07-18T12:35:35;37.58;31.68;40.23;;
49732;Laerm;43666;51.442;6.778;2022-07-18T12:43:09;37.51;30.89;40.62;;
49732;Laerm;43666;51.442;6.778;2022-07-18T12:45:36;37.50;30.89;40.53;;
49732;Laerm;43666;51.442;6.778;2022-07-18T12:48:05;37.48;29.92;40.53;;
49732;Laerm;43666;51.442;6.778;2022-07-18T12:50:31;37.52;31.68;40.33;;
49732;Laerm;43666;51.442;6.778;2022-07-18T12:52:57;37.46;31.68;40.62;;
49732;Laerm;43666;51.442;6.778;2022-07-18T12:55:24;37.49;28.67;40.53;;
49732;Laerm;43666;51.442;6.778;2022-07-18T12:57:49;37.56;32.58;40.71;;
49732;Laerm;43666;51.442;6.778;2022-07-18T13:00:15;37.49;31.68;40.89;;
49732;Laerm;43666;51.442;6.778;2022-07-18T13:02:44;37.54;31.68;40.53;;
49732;Laerm;43666;51.442;6.778;2022-07-18T13:05:10;37.49;32.35;40.71;;
49732;Laerm;43666;51.442;6.778;2022-07-18T13:07:36;37.64;31.68;43.94;;
49732;Laerm;43666;51.442;6.778;2022-07-18T13:10:03;37.52;26.91;40.33;;
49732;Laerm;43666;51.442;6.778;2022-07-18T13:12:29;37.59;31.68;40.43;;
49732;Laerm;43666;51.442;6.778;2022-07-18T13:14:54;37.60;32.35;40.43;;
49732;Laerm;43666;51.442;6.778;2022-07-18T13:17:20;37.52;32.35;40.43;;
49732;Laerm;43666;51.442;6.778;2022-07-18T13:19:46;37.62;31.68;40.80;;
49732;Laerm;43666;51.442;6.778;2022-07-18T13:22:11;37.54;29.92;40.43;;
49732;Laerm;43666;51.442;6.778;2022-07-18T13:24:37;37.51;31.68;40.98;;
49732;Laerm;43666;51.442;6.778;2022-07-18T13:27:04;37.44;31.68;40.62;;
49732;Laerm;43666;51.442;6.778;2022-07-18T13:29:29;37.50;32.35;40.89;;
49732;Laerm;43666;51.442;6.778;2022-07-18T13:31:56;37.53;30.89;40.54;;
49732;Laerm;43666;51.442;6.778;2022-07-18T13:34:23;37.49;32.35;40.43;;
49732;Laerm;43666;51.442;6.778;2022-07-18T13:36:50;37.55;29.92;40.33;;
49732;Laerm;43666;51.442;6.778;2022-07-18T13:39:16;37.52;32.35;40.62;;
49732;Laerm;43666;51.442;6.778;2022-07-18T13:41:42;37.51;31.68;40.62;;
49732;Laerm;43666;51.442;6.778;2022-07-18T13:44:08;37.49;32.35;41.30;;
49732;Laerm;43666;51.442;6.778;2022-07-18T13:46:33;37.56;30.89;40.53;;
49732;Laerm;43666;51.442;6.778;2022-07-18T13:48:59;37.47;26.91;40.23;;
49732;Laerm;43666;51.442;6.778;2022-07-18T13:51:25;37.47;31.68;40.43;;
49732;Laerm;43666;51.442;6.778;2022-07-18T13:53:51;37.47;32.35;40.36;;
49732;Laerm;43666;51.442;6.778;2022-07-18T13:56:17;37.47;31.68;41.53;;
49732;Laerm;43666;51.442;6.778;2022-07-18T13:58:43;37.43;31.68;40.62;;
49732;Laerm;43666;51.442;6.778;2022-07-18T14:01:09;37.33;31.68;40.13;;
49732;Laerm;43666;51.442;6.778;2022-07-18T14:03:35;37.42;30.89;40.43;;
49732;Laerm;43666;51.442;6.778;2022-07-18T14:06:01;37.42;32.35;40.23;;
49732;Laerm;43666;51.442;6.778;2022-07-18T14:08:27;37.41;29.92;40.80;;
49732;Laerm;43666;51.442;6.778;2022-07-18T14:10:54;37.47;31.68;40.43;;
49732;Laerm;43666;51.442;6.778;2022-07-18T14:13:19;37.44;30.89;40.62;;
49732;Laerm;43666;51.442;6.778;2022-07-18T14:15:45;37.44;29.92;40.53;;
49732;Laerm;43666;51.442;6.778;2022-07-18T14:18:11;37.46;30.89;40.62;;